Pagrindinis puslapis
METAR-TAF:

METAR-TAF

Oro uostai :

Erzindžanas, Turkija

platuma: 39-44N, ilguma: 039-30E, Aukštis: 1156 m

Dabartinis oras

Ataskaita buvo paskelbta 31 minutes, ne 11:50 UTC
Vėjas 13 kt iš Pietvakarių, svyruoja nuo Pietų ir Vakarų
Temperatūra 25°C
Drėgmė 22%
Slėgis 1014 hPa
Matomumas 10 km arba daugiau
Mažai debesys ne aukštis 4500 ft

METAR: LTCD 041150Z 23013KT 190V260 9999 FEW045 25/02 Q1014 NOSIG

Laikas: 15:21 (12:21 UTC)

Prognozė

Ataskaita buvo paskelbta 1 valandą ir 41 minutes, ne 10:40 UTC
Prognozė galioja nuo 04 metu 12 UTC su 04 metu 21 UTC
Vėjas 8 kt iš Vakarų/Pietvakarių
Matomumas 10 km arba daugiau
Mažai debesys ne aukštis 4500 ft

TAF: LTCD 041040Z 0412/0421 24008KT 9999 FEW045

Orai ataskaitas ir orų prognozės (METAR, TAF).

turimą stotys yra geltonos ir raudonos taškus žemėlapyje.

Perkelti pele per norėdami pamatyti stoties vardą.

Tada spustelėkite, norėdami matyti oro stebėjimo ir prognozės.

Norėdami pakeisti žemėlapį: spustelėkite ant žalios mygtukų su juodo kryžiaus žemyn,; žalią mygtuką su brūkšneliu, jei norite nutolinti; arba žalių rodyklių gretimoms žemėlapius.


METAR-TAF: